createdAt,value
2018-08-23T00:00:45.250Z,965.70
2018-08-23T00:01:45.201Z,965.68
2018-08-23T00:02:45.190Z,965.68
2018-08-23T00:03:45.167Z,965.65
2018-08-23T00:04:45.107Z,965.69
2018-08-23T00:05:45.061Z,965.69
2018-08-23T00:06:45.016Z,965.64
2018-08-23T00:07:44.941Z,965.64
2018-08-23T00:08:44.898Z,965.63
2018-08-23T00:09:44.854Z,965.65
2018-08-23T00:10:44.815Z,965.67
2018-08-23T00:11:44.807Z,965.69
2018-08-23T00:12:44.726Z,965.63
2018-08-23T00:13:44.697Z,965.64
2018-08-23T00:14:44.636Z,965.63
2018-08-23T00:15:44.591Z,965.63
2018-08-23T00:16:44.603Z,965.66
2018-08-23T00:17:44.500Z,965.61
2018-08-23T00:18:44.461Z,965.65
2018-08-23T00:19:44.416Z,965.61
2018-08-23T00:20:44.378Z,965.62
2018-08-23T00:21:44.358Z,965.61
2018-08-23T00:22:44.285Z,965.59
2018-08-23T00:23:44.240Z,965.64
2018-08-23T00:24:44.198Z,965.61
2018-08-23T00:25:44.183Z,965.58
2018-08-23T00:26:44.110Z,965.59
2018-08-23T00:27:44.063Z,965.58
2018-08-23T00:28:44.021Z,965.54
2018-08-23T00:29:43.979Z,965.57
2018-08-23T00:30:43.968Z,965.56
2018-08-23T00:31:43.886Z,965.56
2018-08-23T00:32:43.849Z,965.57
2018-08-23T00:33:43.797Z,965.61
2018-08-23T00:34:43.758Z,965.56
2018-08-23T00:35:43.763Z,965.59
2018-08-23T00:36:43.664Z,965.55
2018-08-23T00:37:43.623Z,965.55
2018-08-23T00:38:43.583Z,965.54
2018-08-23T00:39:43.535Z,965.52
2018-08-23T00:40:43.523Z,965.51
2018-08-23T00:41:43.487Z,965.52
2018-08-23T00:42:43.406Z,965.53
2018-08-23T00:43:43.359Z,965.52
2018-08-23T00:44:43.314Z,965.53
2018-08-23T00:45:43.275Z,965.53
2018-08-23T00:46:43.261Z,965.51
2018-08-23T00:47:43.182Z,965.48
2018-08-23T00:48:43.173Z,965.53
2018-08-23T00:49:43.095Z,965.51
2018-08-23T00:50:43.054Z,965.50
2018-08-23T00:51:43.007Z,965.50
2018-08-23T00:52:42.996Z,965.49
2018-08-23T00:53:42.919Z,965.48
2018-08-23T00:54:42.880Z,965.48
2018-08-23T00:55:42.832Z,965.47
2018-08-23T00:56:42.785Z,965.49
2018-08-23T00:57:42.776Z,965.50
2018-08-23T00:58:42.700Z,965.50
2018-08-23T00:59:42.657Z,965.49
2018-08-23T01:00:42.644Z,965.51
2018-08-23T01:01:42.565Z,965.51
2018-08-23T01:02:42.529Z,965.49
2018-08-23T01:03:42.484Z,965.48
2018-08-23T01:04:42.434Z,965.49
2018-08-23T01:05:42.422Z,965.52
2018-08-23T01:06:42.346Z,965.51
2018-08-23T01:07:42.305Z,965.53
2018-08-23T01:08:42.266Z,965.45
2018-08-23T01:09:42.213Z,965.45
2018-08-23T01:10:42.203Z,965.47
2018-08-23T01:11:42.157Z,965.45
2018-08-23T01:12:42.083Z,965.44
2018-08-23T01:13:42.072Z,965.44
2018-08-23T01:14:41.994Z,965.36
2018-08-23T01:15:41.952Z,965.41
2018-08-23T01:16:41.908Z,965.37
2018-08-23T01:17:41.861Z,965.38
2018-08-23T01:18:41.852Z,965.39
2018-08-23T01:19:41.778Z,965.39
2018-08-23T01:20:41.735Z,965.34
2018-08-23T01:21:41.720Z,965.39
2018-08-23T01:22:41.642Z,965.35
2018-08-23T01:23:41.600Z,965.32
2018-08-23T01:24:41.554Z,965.31
2018-08-23T01:25:41.509Z,965.36
2018-08-23T01:26:41.500Z,965.36
2018-08-23T01:27:41.424Z,965.33
2018-08-23T01:28:41.416Z,965.33
2018-08-23T01:29:41.334Z,965.31
2018-08-23T01:30:41.289Z,965.26
2018-08-23T01:31:41.247Z,965.30
2018-08-23T01:32:41.200Z,965.32
2018-08-23T01:33:41.198Z,965.27
2018-08-23T01:34:41.117Z,965.27
2018-08-23T01:35:41.070Z,965.29
2018-08-23T01:36:41.028Z,965.27
2018-08-23T01:37:40.992Z,965.26
2018-08-23T01:38:40.971Z,965.26
2018-08-23T01:39:40.926Z,965.21
2018-08-23T01:40:40.850Z,965.20
2018-08-23T01:41:40.803Z,965.17
2018-08-23T01:42:40.795Z,965.15
2018-08-23T01:43:40.716Z,965.14
2018-08-23T01:44:40.674Z,965.18
2018-08-23T01:45:40.663Z,965.14
2018-08-23T01:46:40.588Z,965.11
2018-08-23T01:47:40.541Z,965.08
2018-08-23T01:48:40.497Z,965.10
2018-08-23T01:49:40.456Z,965.10
2018-08-23T01:50:40.442Z,965.09
2018-08-23T01:51:40.365Z,965.12
2018-08-23T01:52:40.321Z,965.13
2018-08-23T01:53:40.277Z,965.11
2018-08-23T01:54:40.262Z,965.09
2018-08-23T01:55:40.219Z,965.05
2018-08-23T01:56:40.145Z,965.06
2018-08-23T01:57:40.098Z,965.11
2018-08-23T01:58:40.059Z,965.09
2018-08-23T01:59:40.013Z,965.07
2018-08-23T02:00:39.998Z,965.06
2018-08-23T02:01:39.964Z,965.07
2018-08-23T02:02:39.882Z,965.04
2018-08-23T02:03:39.835Z,965.03
2018-08-23T02:04:39.789Z,965.01
2018-08-23T02:05:39.747Z,965.03
2018-08-23T02:06:39.833Z,965.03
2018-08-23T02:07:39.658Z,965.03
2018-08-23T02:08:39.615Z,964.99
2018-08-23T02:09:39.570Z,965.00
2018-08-23T02:10:39.525Z,964.98
2018-08-23T02:11:39.518Z,964.95
2018-08-23T02:12:39.435Z,964.97
2018-08-23T02:13:39.392Z,964.96
2018-08-23T02:14:39.349Z,965.00
2018-08-23T02:15:39.308Z,964.97
2018-08-23T02:16:39.290Z,964.99
2018-08-23T02:17:39.217Z,964.98
2018-08-23T02:18:39.208Z,965.02
2018-08-23T02:19:39.130Z,964.98
2018-08-23T02:20:39.087Z,965.02
2018-08-23T02:21:39.039Z,965.00
2018-08-23T02:22:38.997Z,964.97
2018-08-23T02:23:38.984Z,965.02
2018-08-23T02:24:38.908Z,965.02
2018-08-23T02:25:38.864Z,965.07
2018-08-23T02:26:38.818Z,965.03
2018-08-23T02:27:38.776Z,964.99
2018-08-23T02:28:38.760Z,965.02
2018-08-23T02:29:38.690Z,965.01
2018-08-23T02:30:38.647Z,964.97
2018-08-23T02:31:38.632Z,965.01
2018-08-23T02:32:38.556Z,965.03
2018-08-23T02:33:38.509Z,965.03
2018-08-23T02:34:38.464Z,965.01
2018-08-23T02:35:38.423Z,965.05
2018-08-23T02:36:38.409Z,965.05
2018-08-23T02:37:38.333Z,965.08
2018-08-23T02:38:38.290Z,965.05
2018-08-23T02:39:38.244Z,965.08
2018-08-23T02:40:38.206Z,965.10
2018-08-23T02:41:38.194Z,965.15
2018-08-23T02:42:38.111Z,965.12
2018-08-23T02:43:38.066Z,965.10
2018-08-23T02:44:38.061Z,965.10
2018-08-23T02:45:37.982Z,965.08
2018-08-23T02:46:37.974Z,965.05
2018-08-23T02:47:37.890Z,965.05
2018-08-23T02:48:37.851Z,965.09
2018-08-23T02:49:37.804Z,965.06
2018-08-23T02:50:37.759Z,965.06
2018-08-23T02:51:37.747Z,965.09
2018-08-23T02:52:37.667Z,965.05
2018-08-23T02:53:37.626Z,965.11
2018-08-23T02:54:37.580Z,965.07
2018-08-23T02:55:37.537Z,965.10
2018-08-23T02:56:37.529Z,965.07
2018-08-23T02:57:37.450Z,965.09
2018-08-23T02:58:37.408Z,965.11
2018-08-23T02:59:37.362Z,965.09
2018-08-23T03:00:37.469Z,965.10
2018-08-23T03:01:37.311Z,965.08
2018-08-23T03:02:37.228Z,965.07
2018-08-23T03:03:37.188Z,965.06
2018-08-23T03:04:37.138Z,965.07
2018-08-23T03:05:37.093Z,965.07
2018-08-23T03:06:37.085Z,965.04
2018-08-23T03:07:37.005Z,965.00
2018-08-23T03:08:36.960Z,965.03
2018-08-23T03:09:36.948Z,965.00
2018-08-23T03:10:36.873Z,964.99
2018-08-23T03:11:36.826Z,964.97
2018-08-23T03:12:36.782Z,964.94
2018-08-23T03:13:36.737Z,964.97
2018-08-23T03:14:36.734Z,964.94
2018-08-23T03:15:36.649Z,964.92
2018-08-23T03:16:36.604Z,964.89
2018-08-23T03:17:36.557Z,964.93
2018-08-23T03:18:36.515Z,964.92
2018-08-23T03:19:36.512Z,964.94
2018-08-23T03:20:36.428Z,964.91
2018-08-23T03:21:36.380Z,964.90
2018-08-23T03:22:36.337Z,964.85
2018-08-23T03:23:36.292Z,964.89
2018-08-23T03:24:36.285Z,964.87
2018-08-23T03:25:36.202Z,964.86
2018-08-23T03:26:36.157Z,964.85
2018-08-23T03:27:36.110Z,964.83
2018-08-23T03:28:36.066Z,964.83
2018-08-23T03:29:36.053Z,964.84
2018-08-23T03:30:35.977Z,964.86
2018-08-23T03:31:35.934Z,964.86
2018-08-23T03:32:35.886Z,964.88
2018-08-23T03:33:35.842Z,964.86
2018-08-23T03:34:35.829Z,964.85
2018-08-23T03:35:35.753Z,964.86
2018-08-23T03:36:35.707Z,964.85
2018-08-23T03:37:35.661Z,964.83
2018-08-23T03:38:35.614Z,964.81
2018-08-23T03:39:35.603Z,964.82
2018-08-23T03:40:35.525Z,964.81
2018-08-23T03:41:35.480Z,964.77
2018-08-23T03:42:35.465Z,964.74
2018-08-23T03:43:35.390Z,964.75
2018-08-23T03:44:35.345Z,964.80
2018-08-23T03:45:35.329Z,964.82
2018-08-23T03:46:35.254Z,964.79
2018-08-23T03:47:35.211Z,964.83
2018-08-23T03:48:35.196Z,964.80
2018-08-23T03:49:35.119Z,964.80
2018-08-23T03:50:35.077Z,964.82
2018-08-23T03:51:35.028Z,964.80
2018-08-23T03:52:35.074Z,964.81
2018-08-23T03:53:34.974Z,964.82
2018-08-23T03:54:34.893Z,964.82
2018-08-23T03:55:34.847Z,964.82
2018-08-23T03:56:34.804Z,964.85
2018-08-23T03:57:34.756Z,964.79
2018-08-23T03:58:34.744Z,964.84
2018-08-23T03:59:34.668Z,964.82
2018-08-23T04:00:34.655Z,964.82
2018-08-23T04:01:34.600Z,964.81
2018-08-23T04:02:34.536Z,964.85
2018-08-23T04:03:34.488Z,964.82
2018-08-23T04:04:34.441Z,964.86
2018-08-23T04:05:34.400Z,964.86
2018-08-23T04:06:34.381Z,964.89
2018-08-23T04:07:34.310Z,964.86
2018-08-23T04:08:34.260Z,964.87
2018-08-23T04:09:34.215Z,964.87
2018-08-23T04:10:34.168Z,964.85
2018-08-23T04:11:34.169Z,964.89
2018-08-23T04:12:34.077Z,964.90
2018-08-23T04:13:34.035Z,964.87
2018-08-23T04:14:33.990Z,964.87
2018-08-23T04:15:33.946Z,964.88
2018-08-23T04:16:33.931Z,964.91
2018-08-23T04:17:33.859Z,964.89
2018-08-23T04:18:33.840Z,964.89
2018-08-23T04:19:33.765Z,964.86
2018-08-23T04:20:33.716Z,964.87
2018-08-23T04:21:33.674Z,964.86
2018-08-23T04:22:33.629Z,964.85
2018-08-23T04:23:33.618Z,964.83
2018-08-23T04:24:33.633Z,964.83
2018-08-23T04:25:33.491Z,964.84
2018-08-23T04:26:33.455Z,964.79
2018-08-23T04:27:33.405Z,964.79
2018-08-23T04:28:33.394Z,964.79
2018-08-23T04:29:33.311Z,964.77
2018-08-23T04:30:33.266Z,964.75
2018-08-23T04:31:33.223Z,964.75
2018-08-23T04:32:33.175Z,964.76
2018-08-23T04:33:33.166Z,964.70
2018-08-23T04:34:33.090Z,964.73
2018-08-23T04:35:33.042Z,964.74
2018-08-23T04:36:32.994Z,964.72
2018-08-23T04:37:32.949Z,964.75
2018-08-23T04:38:32.935Z,964.75
2018-08-23T04:39:32.891Z,964.76
2018-08-23T04:40:32.815Z,964.74
2018-08-23T04:41:32.771Z,964.76
2018-08-23T04:42:32.722Z,964.75
2018-08-23T04:43:32.682Z,964.74
2018-08-23T04:44:32.672Z,964.77
2018-08-23T04:45:32.587Z,964.73
2018-08-23T04:46:32.543Z,964.75
2018-08-23T04:47:32.498Z,964.73
2018-08-23T04:48:32.450Z,964.73
2018-08-23T04:49:32.438Z,964.72
2018-08-23T04:50:32.406Z,964.74
2018-08-23T04:51:32.320Z,964.74
2018-08-23T04:52:32.269Z,964.71
2018-08-23T04:53:32.223Z,964.75
2018-08-23T04:54:32.178Z,964.71
2018-08-23T04:55:32.157Z,964.76
2018-08-23T04:56:32.111Z,964.71
2018-08-23T04:57:32.049Z,964.76
2018-08-23T04:58:32.032Z,964.75
2018-08-23T04:59:31.956Z,964.75
2018-08-23T05:00:31.924Z,964.73
2018-08-23T05:01:31.863Z,964.75
2018-08-23T05:02:31.818Z,964.75
2018-08-23T05:03:31.809Z,964.77
2018-08-23T05:04:31.728Z,964.80
2018-08-23T05:05:31.682Z,964.76
2018-08-23T05:06:31.672Z,964.79
2018-08-23T05:07:31.592Z,964.78
2018-08-23T05:08:31.556Z,964.79
2018-08-23T05:09:31.500Z,964.81
2018-08-23T05:10:31.457Z,964.79
2018-08-23T05:11:31.442Z,964.81
2018-08-23T05:12:31.364Z,964.77
2018-08-23T05:13:31.320Z,964.78
2018-08-23T05:14:31.313Z,964.81
2018-08-23T05:15:31.232Z,964.80
2018-08-23T05:16:31.188Z,964.80
2018-08-23T05:17:31.143Z,964.83
2018-08-23T05:18:31.140Z,964.80
2018-08-23T05:19:31.082Z,964.83
2018-08-23T05:20:31.009Z,964.79
2018-08-23T05:21:30.961Z,964.79
2018-08-23T05:22:30.919Z,964.78
2018-08-23T05:23:30.871Z,964.83
2018-08-23T05:24:30.865Z,964.76
2018-08-23T05:25:30.780Z,964.78
2018-08-23T05:26:30.740Z,964.79
2018-08-23T05:27:30.691Z,964.77
2018-08-23T05:28:30.645Z,964.72
2018-08-23T05:29:30.633Z,964.73
2018-08-23T05:30:30.558Z,964.72
2018-08-23T05:31:30.516Z,964.72
2018-08-23T05:32:30.467Z,964.72
2018-08-23T05:33:30.456Z,964.73
2018-08-23T05:34:30.382Z,964.71
2018-08-23T05:35:30.334Z,964.69
2018-08-23T05:36:30.291Z,964.68
2018-08-23T05:37:30.244Z,964.67
2018-08-23T05:38:30.231Z,964.65
2018-08-23T05:39:30.157Z,964.62
2018-08-23T05:40:30.112Z,964.65
2018-08-23T05:41:30.068Z,964.62
2018-08-23T05:42:30.022Z,964.65
2018-08-23T05:43:30.012Z,964.67
2018-08-23T05:44:29.931Z,964.60
2018-08-23T05:45:29.887Z,964.64
2018-08-23T05:46:29.841Z,964.67
2018-08-23T05:47:29.802Z,964.65
2018-08-23T05:48:29.785Z,964.66
2018-08-23T05:49:29.708Z,964.66
2018-08-23T05:50:29.669Z,964.66
2018-08-23T05:51:29.619Z,964.64
2018-08-23T05:52:29.582Z,964.63
2018-08-23T05:53:29.568Z,964.62
2018-08-23T05:54:29.487Z,964.62
2018-08-23T05:55:29.443Z,964.60
2018-08-23T05:56:29.400Z,964.63
2018-08-23T05:57:29.351Z,964.60
2018-08-23T05:58:29.347Z,964.63
2018-08-23T05:59:29.265Z,964.62
2018-08-23T06:00:29.250Z,964.64
2018-08-23T06:01:29.177Z,964.56
2018-08-23T06:02:29.132Z,964.55
2018-08-23T06:03:29.129Z,964.56
2018-08-23T06:04:29.049Z,964.58
2018-08-23T06:05:29.000Z,964.58
2018-08-23T06:06:28.962Z,964.54
2018-08-23T06:07:28.911Z,964.61
2018-08-23T06:08:28.917Z,964.59
2018-08-23T06:09:28.828Z,964.60
2018-08-23T06:10:28.785Z,964.58
2018-08-23T06:11:28.737Z,964.56
2018-08-23T06:12:28.697Z,964.57
2018-08-23T06:13:28.681Z,964.53
2018-08-23T06:14:28.608Z,964.54
2018-08-23T06:15:28.560Z,964.58
2018-08-23T06:16:28.515Z,964.56
2018-08-23T06:17:28.504Z,964.59
2018-08-23T06:18:28.438Z,964.61
2018-08-23T06:19:28.386Z,964.62
2018-08-23T06:20:28.373Z,964.61
2018-08-23T06:21:28.299Z,964.60
2018-08-23T06:22:28.296Z,964.56
2018-08-23T06:23:28.214Z,964.60
2018-08-23T06:24:28.169Z,964.56
2018-08-23T06:25:28.125Z,964.61
2018-08-23T06:26:28.080Z,964.60
2018-08-23T06:27:28.168Z,964.57
2018-08-23T06:28:27.997Z,964.57
2018-08-23T06:29:27.978Z,964.51
2018-08-23T06:30:27.908Z,964.53
2018-08-23T06:31:27.864Z,964.57
2018-08-23T06:32:27.860Z,964.58
2018-08-23T06:33:27.889Z,964.56
2018-08-23T06:34:27.734Z,964.54
2018-08-23T06:35:27.699Z,964.56
2018-08-23T06:36:27.649Z,964.59
2018-08-23T06:37:27.644Z,964.57
2018-08-23T06:38:27.625Z,964.58
2018-08-23T06:39:27.534Z,964.59
2018-08-23T06:40:27.478Z,964.60
2018-08-23T06:41:27.436Z,964.57
2018-08-23T06:42:27.393Z,964.59
2018-08-23T06:43:27.394Z,964.55
2018-08-23T06:44:27.349Z,964.58
2018-08-23T06:45:27.265Z,964.58
2018-08-23T06:46:27.226Z,964.56
2018-08-23T06:47:27.182Z,964.57
2018-08-23T06:48:27.182Z,964.57
2018-08-23T06:49:27.095Z,964.59
2018-08-23T06:50:27.051Z,964.58
2018-08-23T06:51:27.014Z,964.55
2018-08-23T06:52:26.974Z,964.58
2018-08-23T06:53:27.036Z,964.56
2018-08-23T06:54:26.881Z,964.56
2018-08-23T06:55:26.839Z,964.58
2018-08-23T06:56:26.798Z,964.59
2018-08-23T06:57:26.801Z,964.55
2018-08-23T06:58:26.714Z,964.55
2018-08-23T06:59:26.813Z,964.58
2018-08-23T07:00:26.629Z,964.59
2018-08-23T07:01:26.587Z,964.62
2018-08-23T07:02:26.591Z,964.61
2018-08-23T07:03:26.506Z,964.60
2018-08-23T07:04:26.465Z,964.58
2018-08-23T07:05:26.467Z,964.58
2018-08-23T07:06:26.383Z,964.56
2018-08-23T07:07:26.381Z,964.56
2018-08-23T07:08:26.300Z,964.56
2018-08-23T07:09:26.252Z,964.55
2018-08-23T07:10:26.212Z,964.55
2018-08-23T07:11:26.175Z,964.54
2018-08-23T07:12:26.171Z,964.53
2018-08-23T07:13:26.089Z,964.49
2018-08-23T07:14:26.049Z,964.50
2018-08-23T07:15:26.009Z,964.53
2018-08-23T07:16:25.962Z,964.52
2018-08-23T07:17:26.082Z,964.50
2018-08-23T07:18:25.892Z,964.53
2018-08-23T07:19:25.839Z,964.52
2018-08-23T07:20:25.797Z,964.48
2018-08-23T07:21:25.760Z,964.49
2018-08-23T07:22:25.833Z,964.51
2018-08-23T07:23:25.676Z,964.49
2018-08-23T07:24:25.634Z,964.50
2018-08-23T07:25:25.596Z,964.49
2018-08-23T07:26:25.571Z,964.48
2018-08-23T07:27:25.553Z,964.52
2018-08-23T07:28:25.468Z,964.50
2018-08-23T07:29:25.436Z,964.55
2018-08-23T07:30:25.392Z,964.54
2018-08-23T07:31:25.346Z,964.55
2018-08-23T07:32:25.441Z,964.55
2018-08-23T07:33:25.264Z,964.57
2018-08-23T07:34:25.224Z,964.59
2018-08-23T07:35:25.181Z,964.59
2018-08-23T07:36:25.142Z,964.63
2018-08-23T07:37:25.134Z,964.62
2018-08-23T07:38:25.096Z,964.67
2018-08-23T07:39:25.025Z,964.67
2018-08-23T07:40:24.983Z,964.64
2018-08-23T07:41:24.942Z,964.67
2018-08-23T07:42:24.900Z,964.67
2018-08-23T07:43:24.889Z,964.62
2018-08-23T07:44:24.865Z,964.65
2018-08-23T07:45:24.777Z,964.69
2018-08-23T07:46:24.735Z,964.73
2018-08-23T07:47:24.696Z,964.68
2018-08-23T07:48:24.714Z,964.71
2018-08-23T07:49:24.657Z,964.74
2018-08-23T07:50:24.572Z,964.72
2018-08-23T07:51:24.602Z,964.73
2018-08-23T07:52:24.502Z,964.75
2018-08-23T07:53:24.551Z,964.78
2018-08-23T07:54:24.450Z,964.77
2018-08-23T07:55:24.380Z,964.78
2018-08-23T07:56:24.328Z,964.76
2018-08-23T07:57:24.287Z,964.79
2018-08-23T07:58:24.249Z,964.77
2018-08-23T07:59:24.250Z,964.76
2018-08-23T08:00:24.170Z,964.77
2018-08-23T08:01:24.125Z,964.77
2018-08-23T08:02:24.089Z,964.80
2018-08-23T08:03:24.046Z,964.77
2018-08-23T08:04:24.044Z,964.80
2018-08-23T08:05:23.967Z,964.82
2018-08-23T08:06:23.924Z,964.77
2018-08-23T08:07:23.890Z,964.79
2018-08-23T08:08:23.846Z,964.81
2018-08-23T08:09:23.839Z,964.87
2018-08-23T08:10:23.769Z,964.86
2018-08-23T08:11:23.775Z,964.88
2018-08-23T08:12:23.686Z,964.88
2018-08-23T08:13:23.647Z,964.90
2018-08-23T08:14:23.606Z,964.86
2018-08-23T08:15:23.708Z,964.91
2018-08-23T08:16:23.567Z,964.97
2018-08-23T08:17:23.490Z,964.99
2018-08-23T08:18:23.462Z,964.91
2018-08-23T08:19:23.412Z,964.96
2018-08-23T08:20:23.371Z,964.92
2018-08-23T08:21:23.384Z,964.93
2018-08-23T08:22:23.407Z,964.95
2018-08-23T08:23:23.305Z,964.91
2018-08-23T08:24:23.283Z,964.95
2018-08-23T08:25:23.228Z,964.99
2018-08-23T08:26:24.202Z,965.04
2018-08-23T08:27:23.207Z,965.01
2018-08-23T08:28:23.097Z,965.07
2018-08-23T08:29:23.105Z,965.00
2018-08-23T08:30:23.123Z,964.99
2018-08-23T08:31:22.997Z,965.01
2018-08-23T08:32:22.977Z,965.02
2018-08-23T08:33:22.946Z,965.01
2018-08-23T08:34:22.887Z,965.01
2018-08-23T08:35:23.042Z,965.03
2018-08-23T08:36:22.818Z,964.95
2018-08-23T08:37:22.808Z,965.03
2018-08-23T08:38:22.766Z,965.10
2018-08-23T08:39:22.732Z,965.04
2018-08-23T08:40:22.649Z,964.98
2018-08-23T08:41:22.579Z,965.01
2018-08-23T08:42:22.543Z,964.98
2018-08-23T08:43:22.505Z,964.95
2018-08-23T08:44:22.474Z,964.97
2018-08-23T08:45:22.466Z,964.97
2018-08-23T08:46:22.390Z,964.92
2018-08-23T08:47:22.353Z,964.91
2018-08-23T08:48:22.316Z,964.93
2018-08-23T08:49:22.279Z,964.95
2018-08-23T08:50:22.333Z,964.86
2018-08-23T08:51:22.206Z,964.92
2018-08-23T08:52:22.170Z,964.93
2018-08-23T08:53:22.132Z,964.94
2018-08-23T08:54:22.096Z,964.99
2018-08-23T08:55:22.094Z,964.96
2018-08-23T08:56:22.023Z,964.96
2018-08-23T08:57:22.142Z,964.95
2018-08-23T08:58:21.973Z,964.91
2018-08-23T08:59:21.913Z,965.02
2018-08-23T09:00:21.877Z,964.93
2018-08-23T09:01:21.870Z,964.91
2018-08-23T09:02:21.802Z,964.91
2018-08-23T09:03:21.766Z,964.85
2018-08-23T09:04:21.728Z,964.85
2018-08-23T09:05:21.726Z,964.83
2018-08-23T09:06:21.655Z,964.84
2018-08-23T09:07:21.619Z,964.85
2018-08-23T09:08:21.584Z,964.87
2018-08-23T09:09:21.582Z,964.82
2018-08-23T09:10:21.511Z,964.85
2018-08-23T09:11:21.504Z,964.86
2018-08-23T09:12:21.439Z,964.89
2018-08-23T09:13:21.431Z,964.87
2018-08-23T09:14:21.369Z,964.84
2018-08-23T09:15:21.331Z,964.78
2018-08-23T09:16:21.292Z,964.73
2018-08-23T09:17:21.291Z,964.77
2018-08-23T09:18:21.221Z,964.80
2018-08-23T09:19:21.183Z,964.78
2018-08-23T09:20:21.194Z,964.81
2018-08-23T09:21:21.113Z,964.81
2018-08-23T09:22:21.108Z,964.84
2018-08-23T09:23:21.037Z,964.90
2018-08-23T09:24:21.104Z,964.84
2018-08-23T09:25:21.066Z,964.93
2018-08-23T09:26:20.931Z,964.89
2018-08-23T09:27:20.959Z,964.89
2018-08-23T09:28:20.861Z,964.91
2018-08-23T09:29:20.820Z,964.80
2018-08-23T09:30:20.816Z,964.84
2018-08-23T09:31:20.751Z,964.76
2018-08-23T09:32:20.718Z,964.90
2018-08-23T09:33:20.677Z,964.78
2018-08-23T09:34:20.642Z,964.80
2018-08-23T09:35:20.644Z,964.87
2018-08-23T09:36:20.572Z,964.87
2018-08-23T09:37:20.537Z,964.79
2018-08-23T09:38:20.503Z,964.89
2018-08-23T09:39:20.461Z,964.89
2018-08-23T09:40:20.462Z,964.87
2018-08-23T09:41:20.392Z,964.79
2018-08-23T09:42:20.358Z,964.77
2018-08-23T09:43:20.321Z,964.80
2018-08-23T09:44:20.282Z,964.86
2018-08-23T09:45:20.380Z,964.85
2018-08-23T09:46:20.211Z,964.82
2018-08-23T09:47:20.181Z,964.89
2018-08-23T09:48:20.139Z,964.89
2018-08-23T09:49:20.101Z,964.83
2018-08-23T09:50:20.101Z,964.76
2018-08-23T09:51:20.066Z,964.81
2018-08-23T09:52:20.051Z,964.83
2018-08-23T09:53:19.961Z,964.79
2018-08-23T09:54:19.921Z,964.81
2018-08-23T09:55:19.890Z,964.85
2018-08-23T09:56:19.882Z,964.88
2018-08-23T09:57:19.815Z,964.76
2018-08-23T09:58:19.786Z,964.77
2018-08-23T09:59:19.746Z,964.72
2018-08-23T10:00:19.712Z,964.74
2018-08-23T10:01:19.708Z,964.67
2018-08-23T10:02:19.680Z,964.67
2018-08-23T10:03:19.605Z,964.68
2018-08-23T10:04:19.632Z,964.72
2018-08-23T10:05:19.533Z,964.63
2018-08-23T10:06:19.497Z,964.76
2018-08-23T10:07:19.511Z,964.70
2018-08-23T10:08:19.429Z,964.75
2018-08-23T10:09:19.389Z,964.74
2018-08-23T10:10:19.359Z,964.65
2018-08-23T10:11:19.400Z,964.68
2018-08-23T10:12:19.319Z,964.73
2018-08-23T10:13:19.250Z,964.67
2018-08-23T10:14:19.215Z,964.69
2018-08-23T10:15:19.178Z,964.69
2018-08-23T10:16:19.143Z,964.69
2018-08-23T10:17:19.140Z,964.70
2018-08-23T10:18:19.123Z,964.69
2018-08-23T10:19:19.038Z,964.69
2018-08-23T10:20:18.999Z,964.69
2018-08-23T10:21:18.965Z,964.67
2018-08-23T10:22:18.933Z,964.75
2018-08-23T10:23:18.934Z,964.70
2018-08-23T10:24:18.855Z,964.67
2018-08-23T10:25:18.820Z,964.63
2018-08-23T10:26:18.782Z,964.72
2018-08-23T10:27:18.748Z,964.68
2018-08-23T10:28:18.750Z,964.72
2018-08-23T10:29:18.678Z,964.73
2018-08-23T10:30:18.643Z,964.78
2018-08-23T10:31:18.603Z,964.70
2018-08-23T10:32:18.657Z,964.70
2018-08-23T10:33:18.573Z,964.67
2018-08-23T10:34:18.495Z,964.68
2018-08-23T10:35:18.470Z,964.70
2018-08-23T10:36:18.423Z,964.61
2018-08-23T10:37:18.387Z,964.57
2018-08-23T10:38:18.415Z,964.57
2018-08-23T10:39:18.317Z,964.62
2018-08-23T10:40:18.312Z,964.64
2018-08-23T10:41:18.248Z,964.61
2018-08-23T10:42:18.212Z,964.60
2018-08-23T10:43:18.178Z,964.63
2018-08-23T10:44:18.157Z,964.54
2018-08-23T10:45:18.134Z,964.57
2018-08-23T10:46:18.065Z,964.51
2018-08-23T10:47:18.030Z,964.51
2018-08-23T10:48:17.998Z,964.49
2018-08-23T10:49:17.959Z,964.46
2018-08-23T10:50:17.955Z,964.48
2018-08-23T10:51:17.894Z,964.51
2018-08-23T10:52:17.854Z,964.51
2018-08-23T10:53:17.820Z,964.45
2018-08-23T10:54:17.811Z,964.48
2018-08-23T10:55:17.754Z,964.43
2018-08-23T10:56:17.708Z,964.41
2018-08-23T10:57:17.714Z,964.46
2018-08-23T10:58:17.640Z,964.48
2018-08-23T10:59:17.607Z,964.44
2018-08-23T11:00:17.567Z,964.51
2018-08-23T11:01:17.530Z,964.52
2018-08-23T11:02:17.526Z,964.49
2018-08-23T11:03:17.461Z,964.51
2018-08-23T11:04:17.427Z,964.53
2018-08-23T11:05:17.391Z,964.56
2018-08-23T11:06:17.354Z,964.63
2018-08-23T11:07:17.356Z,964.59
2018-08-23T11:08:17.287Z,964.60
2018-08-23T11:09:17.244Z,964.72
2018-08-23T11:10:17.210Z,964.71
2018-08-23T11:11:17.174Z,964.72
2018-08-23T11:12:17.197Z,964.72
2018-08-23T11:13:17.110Z,964.72
2018-08-23T11:14:17.072Z,964.66
2018-08-23T11:15:17.030Z,964.53
2018-08-23T11:16:16.993Z,964.57
2018-08-23T11:17:17.118Z,964.68
2018-08-23T11:18:16.921Z,964.63
2018-08-23T11:19:16.883Z,964.63
2018-08-23T11:20:16.847Z,964.63
2018-08-23T11:21:16.809Z,964.60
2018-08-23T11:22:16.812Z,964.59
2018-08-23T11:23:16.736Z,964.55
2018-08-23T11:24:16.698Z,964.50
2018-08-23T11:25:16.661Z,964.54
2018-08-23T11:26:16.622Z,964.52
2018-08-23T11:27:16.619Z,964.49
2018-08-23T11:28:16.548Z,964.47
2018-08-23T11:29:16.516Z,964.46
2018-08-23T11:30:16.477Z,964.49
2018-08-23T11:31:16.437Z,964.48
2018-08-23T11:32:16.432Z,964.45
2018-08-23T11:33:16.362Z,964.46
2018-08-23T11:34:16.325Z,964.46
2018-08-23T11:35:16.325Z,964.54
2018-08-23T11:36:16.249Z,964.52
2018-08-23T11:37:16.243Z,964.52
2018-08-23T11:38:16.205Z,964.54
2018-08-23T11:39:16.141Z,964.48
2018-08-23T11:40:16.097Z,964.51
2018-08-23T11:41:16.058Z,964.54
2018-08-23T11:42:16.052Z,964.52
2018-08-23T11:43:15.982Z,964.54
2018-08-23T11:44:15.941Z,964.51
2018-08-23T11:45:15.946Z,964.51
2018-08-23T11:46:15.865Z,964.43
2018-08-23T11:47:15.827Z,964.44
2018-08-23T11:48:15.787Z,964.35
2018-08-23T11:49:15.749Z,964.35
2018-08-23T11:50:15.743Z,964.37
2018-08-23T11:51:15.672Z,964.37
2018-08-23T11:52:15.633Z,964.35
2018-08-23T11:53:15.699Z,964.33
2018-08-23T11:54:15.556Z,964.35
2018-08-23T11:55:15.555Z,964.36
2018-08-23T11:56:15.476Z,964.36
2018-08-23T11:57:15.438Z,964.30
2018-08-23T11:58:15.401Z,964.27
2018-08-23T11:59:15.431Z,964.26
2018-08-23T12:00:15.343Z,964.28
2018-08-23T12:01:15.323Z,964.29
2018-08-23T12:02:15.246Z,964.25
2018-08-23T12:03:15.209Z,964.18
2018-08-23T12:04:15.164Z,964.19
2018-08-23T12:05:15.126Z,964.16
2018-08-23T12:06:15.121Z,964.18
2018-08-23T12:07:15.048Z,964.16
2018-08-23T12:08:15.007Z,964.15
2018-08-23T12:09:14.969Z,964.16
2018-08-23T12:10:14.929Z,964.19
2018-08-23T12:11:14.923Z,964.19
2018-08-23T12:12:14.851Z,964.19
2018-08-23T12:13:14.811Z,964.22
2018-08-23T12:14:14.774Z,964.19
2018-08-23T12:15:14.768Z,964.18
2018-08-23T12:16:14.705Z,964.20
2018-08-23T12:17:14.686Z,964.18
2018-08-23T12:18:14.615Z,964.18
2018-08-23T12:19:14.576Z,964.17
2018-08-23T12:20:14.541Z,964.12
2018-08-23T12:21:14.496Z,964.11
2018-08-23T12:22:14.498Z,964.07
2018-08-23T12:23:14.418Z,964.11
2018-08-23T12:24:14.376Z,964.11
2018-08-23T12:25:14.341Z,964.07
2018-08-23T12:26:14.355Z,964.10
2018-08-23T12:27:14.299Z,964.07
2018-08-23T12:28:14.218Z,964.07